createdAt,value
2018-07-07T00:00:24.399Z,17.00
2018-07-07T00:01:24.338Z,16.99
2018-07-07T00:03:17.107Z,17.10
2018-07-07T00:04:17.037Z,17.15
2018-07-07T00:06:09.847Z,17.09
2018-07-07T00:07:09.741Z,17.03
2018-07-07T00:09:02.507Z,17.09
2018-07-07T00:10:02.454Z,17.07
2018-07-07T00:11:55.264Z,17.12
2018-07-07T00:12:55.175Z,17.05
2018-07-07T00:14:47.971Z,16.98
2018-07-07T00:15:47.901Z,16.90
2018-07-07T00:17:40.696Z,16.99
2018-07-07T00:18:40.625Z,16.91
2018-07-07T00:20:33.389Z,16.91
2018-07-07T00:21:33.328Z,16.82
2018-07-07T00:23:26.125Z,16.95
2018-07-07T00:24:26.048Z,16.99
2018-07-07T00:26:18.825Z,16.99
2018-07-07T00:27:18.801Z,16.99
2018-07-07T00:29:11.543Z,16.90
2018-07-07T00:30:11.474Z,16.80
2018-07-07T00:32:04.265Z,16.88
2018-07-07T00:33:04.202Z,16.81
2018-07-07T00:34:56.996Z,16.84
2018-07-07T00:35:56.924Z,16.81
2018-07-07T00:37:49.745Z,16.82
2018-07-07T00:38:49.648Z,16.65
2018-07-07T00:40:42.448Z,16.67
2018-07-07T00:41:42.369Z,16.63
2018-07-07T00:43:35.412Z,16.66
2018-07-07T00:44:35.234Z,16.72
2018-07-07T00:46:28.093Z,16.54
2018-07-07T00:47:28.005Z,16.51
2018-07-07T00:49:20.986Z,16.47
2018-07-07T00:50:20.797Z,16.44
2018-07-07T00:52:13.670Z,16.48
2018-07-07T00:53:13.530Z,16.45
2018-07-07T00:55:06.321Z,16.51
2018-07-07T00:56:06.247Z,16.40
2018-07-07T00:57:59.009Z,16.40
2018-07-07T00:58:58.955Z,16.45
2018-07-07T01:00:51.733Z,16.42
2018-07-07T01:01:51.654Z,16.37
2018-07-07T01:03:44.454Z,16.40
2018-07-07T01:04:44.364Z,16.40
2018-07-07T01:06:37.129Z,16.23
2018-07-07T01:07:37.069Z,16.18
2018-07-07T01:09:29.912Z,16.01
2018-07-07T01:10:29.779Z,16.16
2018-07-07T01:12:22.597Z,16.17
2018-07-07T01:13:22.499Z,16.25
2018-07-07T01:15:15.281Z,16.07
2018-07-07T01:16:15.204Z,15.96
2018-07-07T01:18:07.985Z,16.07
2018-07-07T01:19:07.917Z,16.03
2018-07-07T01:21:00.753Z,15.89
2018-07-07T01:22:00.651Z,15.89
2018-07-07T01:23:53.409Z,15.78
2018-07-07T01:24:53.339Z,15.86
2018-07-07T01:26:46.155Z,15.88
2018-07-07T01:27:46.081Z,15.88
2018-07-07T01:29:38.871Z,15.64
2018-07-07T01:30:38.779Z,15.59
2018-07-07T01:32:31.550Z,15.60
2018-07-07T01:33:31.494Z,15.66
2018-07-07T01:35:24.289Z,15.74
2018-07-07T01:36:24.214Z,15.77
2018-07-07T01:38:16.988Z,15.85
2018-07-07T01:39:16.927Z,15.91
2018-07-07T01:41:09.709Z,15.92
2018-07-07T01:42:09.633Z,15.85
2018-07-07T01:44:02.397Z,15.55
2018-07-07T01:45:02.338Z,15.67
2018-07-07T01:46:55.151Z,15.68
2018-07-07T01:47:55.048Z,15.62
2018-07-07T01:49:47.811Z,15.67
2018-07-07T01:50:47.759Z,15.74
2018-07-07T01:52:40.527Z,15.60
2018-07-07T01:53:40.458Z,15.58
2018-07-07T01:55:33.292Z,15.77
2018-07-07T01:56:33.206Z,15.89
2018-07-07T01:58:26.018Z,15.95
2018-07-07T01:59:25.937Z,15.95
2018-07-07T02:01:18.731Z,15.95
2018-07-07T02:02:18.675Z,15.85
2018-07-07T02:04:11.483Z,15.92
2018-07-07T02:05:11.475Z,15.86
2018-07-07T02:07:04.178Z,15.84
2018-07-07T02:08:04.106Z,15.70
2018-07-07T02:09:56.897Z,15.78
2018-07-07T02:10:56.830Z,15.80
2018-07-07T02:12:49.600Z,15.59
2018-07-07T02:13:49.533Z,15.58
2018-07-07T02:15:42.314Z,15.52
2018-07-07T02:16:42.246Z,15.44
2018-07-07T02:18:35.045Z,15.22
2018-07-07T02:19:34.959Z,15.03
2018-07-07T02:21:27.733Z,14.91
2018-07-07T02:22:27.665Z,14.93
2018-07-07T02:24:20.454Z,15.01
2018-07-07T02:25:20.372Z,14.82
2018-07-07T02:27:13.162Z,14.85
2018-07-07T02:28:13.097Z,14.98
2018-07-07T02:30:05.870Z,15.04
2018-07-07T02:31:05.796Z,15.15
2018-07-07T02:32:58.576Z,15.05
2018-07-07T02:33:58.515Z,15.09
2018-07-07T02:35:51.298Z,15.16
2018-07-07T02:36:51.214Z,15.20
2018-07-07T02:38:44.003Z,15.38
2018-07-07T02:39:43.920Z,15.28
2018-07-07T02:41:36.679Z,15.13
2018-07-07T02:42:36.614Z,15.23
2018-07-07T02:44:29.413Z,15.28
2018-07-07T02:45:29.341Z,15.25
2018-07-07T02:47:22.119Z,15.31
2018-07-07T02:48:22.087Z,15.33
2018-07-07T02:50:14.840Z,15.33
2018-07-07T02:51:14.764Z,15.37
2018-07-07T02:53:07.539Z,15.30
2018-07-07T02:54:07.467Z,15.38
2018-07-07T02:56:00.270Z,15.41
2018-07-07T02:57:00.192Z,15.48
2018-07-07T02:58:52.959Z,15.51
2018-07-07T02:59:52.895Z,15.59
2018-07-07T03:01:45.667Z,15.53
2018-07-07T03:02:45.618Z,15.49
2018-07-07T03:04:38.366Z,15.66
2018-07-07T03:05:38.292Z,15.43
2018-07-07T03:07:31.079Z,15.52
2018-07-07T03:08:31.003Z,15.46
2018-07-07T03:10:23.823Z,15.52
2018-07-07T03:11:23.704Z,15.43
2018-07-07T03:13:16.475Z,15.44
2018-07-07T03:14:16.416Z,15.43
2018-07-07T03:16:09.207Z,15.43
2018-07-07T03:17:09.141Z,15.48
2018-07-07T03:19:01.912Z,15.46
2018-07-07T03:20:01.839Z,15.41
2018-07-07T03:21:54.627Z,15.44
2018-07-07T03:22:54.531Z,15.52
2018-07-07T03:24:47.301Z,15.44
2018-07-07T03:25:47.231Z,15.55
2018-07-07T03:27:40.021Z,15.49
2018-07-07T03:28:39.952Z,15.53
2018-07-07T03:30:32.754Z,15.58
2018-07-07T03:31:32.648Z,15.62
2018-07-07T03:33:25.417Z,15.58
2018-07-07T03:34:25.355Z,15.60
2018-07-07T03:36:18.180Z,15.44
2018-07-07T03:37:18.096Z,15.44
2018-07-07T03:39:10.880Z,15.58
2018-07-07T03:40:10.798Z,15.53
2018-07-07T03:42:03.590Z,15.62
2018-07-07T03:43:03.512Z,15.55
2018-07-07T03:44:56.313Z,15.33
2018-07-07T03:45:56.246Z,15.40
2018-07-07T03:47:49.035Z,15.38
2018-07-07T03:48:48.962Z,15.40
2018-07-07T03:50:41.731Z,15.30
2018-07-07T03:51:41.671Z,15.40
2018-07-07T03:53:34.464Z,15.19
2018-07-07T03:54:34.388Z,15.15
2018-07-07T03:56:27.168Z,15.05
2018-07-07T03:57:27.107Z,15.13
2018-07-07T03:59:19.866Z,15.34
2018-07-07T04:00:19.803Z,15.46
2018-07-07T04:02:12.588Z,15.41
2018-07-07T04:03:12.510Z,15.52
2018-07-07T04:05:05.283Z,15.60
2018-07-07T04:06:05.221Z,15.74
2018-07-07T04:07:58.007Z,15.86
2018-07-07T04:08:57.930Z,15.85
2018-07-07T04:10:50.693Z,15.88
2018-07-07T04:11:50.635Z,15.88
2018-07-07T04:13:43.449Z,15.89
2018-07-07T04:14:43.387Z,15.92
2018-07-07T04:16:36.199Z,15.93
2018-07-07T04:17:36.107Z,15.74
2018-07-07T04:19:28.984Z,15.62
2018-07-07T04:20:28.972Z,15.60
2018-07-07T04:22:21.752Z,15.78
2018-07-07T04:23:21.633Z,15.76
2018-07-07T04:25:14.391Z,15.73
2018-07-07T04:26:14.322Z,15.81
2018-07-07T04:28:07.150Z,15.86
2018-07-07T04:29:07.090Z,15.85
2018-07-07T04:30:59.908Z,16.11
2018-07-07T04:31:59.785Z,16.10
2018-07-07T04:33:52.569Z,16.16
2018-07-07T04:34:52.518Z,16.26
2018-07-07T04:36:45.266Z,16.37
2018-07-07T04:37:45.214Z,16.42
2018-07-07T04:39:37.983Z,16.42
2018-07-07T04:40:37.922Z,16.54
2018-07-07T04:42:30.698Z,16.65
2018-07-07T04:43:30.625Z,16.77
2018-07-07T04:45:23.392Z,16.90
2018-07-07T04:46:23.344Z,16.92
2018-07-07T04:48:16.111Z,16.91
2018-07-07T04:49:16.042Z,17.03
2018-07-07T04:51:08.849Z,17.10
2018-07-07T04:52:08.752Z,17.05
2018-07-07T04:54:01.524Z,17.21
2018-07-07T04:55:01.462Z,17.39
2018-07-07T04:56:54.247Z,17.68
2018-07-07T04:57:54.168Z,17.57
2018-07-07T04:59:46.955Z,17.58
2018-07-07T05:00:46.893Z,17.65
2018-07-07T05:02:39.756Z,17.95
2018-07-07T05:03:39.673Z,18.25
2018-07-07T05:05:32.502Z,18.66
2018-07-07T05:06:32.428Z,18.87
2018-07-07T05:08:25.215Z,19.39
2018-07-07T05:09:25.143Z,19.57
2018-07-07T05:11:17.941Z,19.45
2018-07-07T05:12:17.883Z,19.21
2018-07-07T05:14:10.647Z,19.82
2018-07-07T05:15:10.580Z,20.61
2018-07-07T05:17:03.362Z,21.06
2018-07-07T05:18:03.287Z,21.48
2018-07-07T05:19:56.074Z,21.36
2018-07-07T05:20:56.009Z,21.00
2018-07-07T05:22:48.826Z,19.83
2018-07-07T05:23:48.740Z,19.62
2018-07-07T05:25:41.540Z,19.09
2018-07-07T05:26:41.470Z,18.76
2018-07-07T05:28:34.245Z,18.69
2018-07-07T05:29:34.171Z,18.65
2018-07-07T05:31:27.010Z,19.20
2018-07-07T05:32:26.918Z,19.53
2018-07-07T05:34:19.679Z,20.68
2018-07-07T05:35:19.619Z,21.27
2018-07-07T05:37:12.447Z,22.59
2018-07-07T05:38:12.332Z,23.16
2018-07-07T05:40:05.107Z,23.96
2018-07-07T05:41:05.056Z,24.16
2018-07-07T05:42:57.845Z,24.18
2018-07-07T05:43:57.749Z,24.31
2018-07-07T05:45:50.524Z,24.80
2018-07-07T05:46:50.477Z,25.05
2018-07-07T05:48:43.280Z,24.67
2018-07-07T05:49:43.191Z,24.63
2018-07-07T05:51:36.017Z,24.90
2018-07-07T05:52:35.942Z,24.98
2018-07-07T05:54:28.758Z,25.11
2018-07-07T05:55:28.675Z,25.23
2018-07-07T05:57:21.494Z,25.23
2018-07-07T05:58:21.402Z,25.49
2018-07-07T06:00:14.213Z,25.41
2018-07-07T06:01:14.141Z,25.67
2018-07-07T06:03:06.915Z,25.31
2018-07-07T06:04:06.868Z,25.51
2018-07-07T06:05:59.654Z,25.63
2018-07-07T06:06:59.576Z,25.76
2018-07-07T06:08:52.391Z,26.44
2018-07-07T06:09:52.306Z,26.76
2018-07-07T06:11:45.079Z,26.66
2018-07-07T06:12:45.009Z,26.28
2018-07-07T06:14:37.830Z,26.09
2018-07-07T06:15:37.761Z,25.74
2018-07-07T06:17:30.542Z,26.69
2018-07-07T06:18:30.477Z,26.71
2018-07-07T06:20:23.276Z,26.03
2018-07-07T06:21:23.258Z,26.11
2018-07-07T06:23:15.988Z,26.11
2018-07-07T06:24:15.926Z,26.20
2018-07-07T06:26:08.808Z,26.65
2018-07-07T06:27:08.653Z,26.75
2018-07-07T06:29:01.470Z,27.23
2018-07-07T06:30:01.380Z,27.35
2018-07-07T06:31:54.324Z,27.23
2018-07-07T06:32:54.138Z,27.42
2018-07-07T06:34:46.936Z,27.63
2018-07-07T06:35:46.844Z,27.68
2018-07-07T06:37:39.669Z,27.86
2018-07-07T06:38:39.572Z,27.06
2018-07-07T06:40:32.419Z,26.96
2018-07-07T06:41:32.302Z,27.23
2018-07-07T06:43:25.072Z,27.42
2018-07-07T06:44:25.019Z,27.72
2018-07-07T06:46:17.882Z,28.13
2018-07-07T06:47:17.795Z,28.18
2018-07-07T06:49:10.650Z,28.06
2018-07-07T06:50:10.592Z,28.30
2018-07-07T06:52:03.396Z,28.09
2018-07-07T06:53:03.439Z,27.93
2018-07-07T06:54:56.260Z,27.98
2018-07-07T06:55:56.208Z,28.09
2018-07-07T06:57:49.192Z,28.14
2018-07-07T06:58:49.150Z,28.52
2018-07-07T07:00:41.945Z,27.52
2018-07-07T07:01:41.868Z,27.96
2018-07-07T07:03:34.712Z,28.17
2018-07-07T07:04:34.596Z,28.36
2018-07-07T07:06:27.437Z,28.85
2018-07-07T07:07:27.333Z,29.03
2018-07-07T07:09:20.148Z,29.27
2018-07-07T07:10:20.093Z,29.12
2018-07-07T07:12:12.878Z,27.33
2018-07-07T07:13:12.797Z,26.71
2018-07-07T07:15:05.596Z,26.17
2018-07-07T07:16:05.528Z,26.84
2018-07-07T07:17:58.338Z,27.20
2018-07-07T07:18:58.305Z,26.90
2018-07-07T07:20:51.049Z,26.38
2018-07-07T07:21:50.996Z,26.41
2018-07-07T07:23:43.813Z,27.25
2018-07-07T07:24:43.741Z,27.98
2018-07-07T07:26:36.647Z,28.45
2018-07-07T07:27:36.541Z,28.72
2018-07-07T07:29:29.370Z,29.36
2018-07-07T07:30:29.295Z,28.48
2018-07-07T07:32:22.095Z,27.62
2018-07-07T07:33:22.033Z,28.01
2018-07-07T07:35:14.832Z,28.60
2018-07-07T07:36:14.761Z,29.02
2018-07-07T07:38:07.592Z,29.26
2018-07-07T07:39:07.518Z,29.48
2018-07-07T07:41:00.307Z,29.99
2018-07-07T07:42:00.247Z,29.64
2018-07-07T07:43:53.047Z,29.05
2018-07-07T07:44:52.977Z,28.94
2018-07-07T07:46:45.760Z,28.24
2018-07-07T07:47:45.698Z,28.33
2018-07-07T07:49:38.732Z,28.51
2018-07-07T07:50:38.443Z,28.60
2018-07-07T07:52:31.227Z,28.64
2018-07-07T07:53:31.167Z,29.02
2018-07-07T07:55:23.971Z,29.54
2018-07-07T07:56:23.904Z,29.41
2018-07-07T07:58:16.746Z,29.05
2018-07-07T07:59:16.660Z,29.47
2018-07-07T08:01:09.454Z,30.13
2018-07-07T08:02:09.394Z,30.11
2018-07-07T08:04:02.199Z,29.99
2018-07-07T08:05:02.170Z,29.85
2018-07-07T08:06:54.915Z,30.23
2018-07-07T08:07:54.866Z,30.25
2018-07-07T08:09:47.654Z,31.03
2018-07-07T08:10:47.594Z,31.30
2018-07-07T08:12:40.402Z,31.46
2018-07-07T08:13:40.313Z,31.38
2018-07-07T08:15:33.118Z,31.65
2018-07-07T08:16:33.045Z,31.95
2018-07-07T08:18:25.841Z,32.68
2018-07-07T08:19:25.779Z,33.02
2018-07-07T08:21:18.571Z,33.31
2018-07-07T08:22:18.536Z,32.59
2018-07-07T08:24:11.316Z,31.00
2018-07-07T08:25:11.238Z,30.60
2018-07-07T08:27:04.032Z,29.32
2018-07-07T08:28:03.978Z,28.82
2018-07-07T08:29:56.795Z,28.60
2018-07-07T08:30:56.728Z,28.17
2018-07-07T08:32:49.515Z,27.93
2018-07-07T08:33:49.454Z,28.18
2018-07-07T08:35:42.241Z,28.33
2018-07-07T08:36:42.168Z,27.83
2018-07-07T08:38:34.967Z,27.25
2018-07-07T08:39:34.910Z,27.74
2018-07-07T08:41:27.711Z,28.45
2018-07-07T08:42:27.617Z,28.79
2018-07-07T08:44:20.408Z,29.20
2018-07-07T08:45:20.340Z,29.74
2018-07-07T08:47:13.165Z,30.32
2018-07-07T08:48:13.109Z,30.10
2018-07-07T08:50:05.904Z,30.45
2018-07-07T08:51:05.829Z,30.29
2018-07-07T08:52:58.634Z,29.00
2018-07-07T08:53:58.561Z,28.39
2018-07-07T08:55:51.345Z,27.71
2018-07-07T08:56:51.286Z,27.45
2018-07-07T08:58:44.146Z,27.11
2018-07-07T08:59:44.070Z,26.88
2018-07-07T09:01:36.881Z,26.32
2018-07-07T09:02:36.824Z,26.03
2018-07-07T09:04:29.689Z,25.53
2018-07-07T09:05:29.587Z,25.54
2018-07-07T09:07:22.358Z,25.56
2018-07-07T09:08:22.356Z,25.57
2018-07-07T09:10:15.194Z,25.63
2018-07-07T09:11:15.016Z,25.69
2018-07-07T09:13:07.841Z,25.39
2018-07-07T09:14:07.743Z,25.46
2018-07-07T09:16:00.579Z,25.26
2018-07-07T09:17:00.483Z,25.29
2018-07-07T09:18:53.290Z,25.46
2018-07-07T09:19:53.192Z,25.64
2018-07-07T09:21:46.021Z,25.67
2018-07-07T09:22:45.949Z,25.79
2018-07-07T09:24:39.287Z,26.16
2018-07-07T09:25:38.665Z,26.53
2018-07-07T09:27:31.471Z,26.76
2018-07-07T09:28:31.405Z,26.79
2018-07-07T09:30:24.234Z,26.31
2018-07-07T09:31:24.166Z,26.03
2018-07-07T09:33:16.957Z,26.20
2018-07-07T09:34:16.907Z,25.93
2018-07-07T09:36:09.701Z,26.19
2018-07-07T09:37:09.625Z,26.42
2018-07-07T09:39:02.440Z,26.90
2018-07-07T09:40:02.339Z,27.02
2018-07-07T09:41:55.119Z,26.84
2018-07-07T09:42:55.058Z,26.60
2018-07-07T09:44:48.328Z,26.28
2018-07-07T09:45:48.252Z,26.42
2018-07-07T09:47:41.036Z,26.29
2018-07-07T09:48:40.977Z,26.32
2018-07-07T09:50:33.803Z,26.17
2018-07-07T09:51:33.782Z,26.00
2018-07-07T09:53:26.502Z,25.82
2018-07-07T09:54:26.426Z,25.74
2018-07-07T09:56:19.320Z,25.83
2018-07-07T09:57:19.200Z,25.79
2018-07-07T09:59:11.996Z,26.61
2018-07-07T10:00:11.943Z,26.91
2018-07-07T10:02:04.763Z,27.30
2018-07-07T10:03:04.691Z,27.39
2018-07-07T10:04:57.489Z,27.20
2018-07-07T10:05:57.412Z,27.01
2018-07-07T10:07:50.217Z,26.83
2018-07-07T10:08:50.139Z,27.25
2018-07-07T10:10:43.003Z,27.59
2018-07-07T10:11:42.914Z,28.01
2018-07-07T10:13:35.741Z,28.30
2018-07-07T10:14:35.636Z,28.54
2018-07-07T10:16:28.435Z,28.95
2018-07-07T10:17:28.360Z,28.92
2018-07-07T10:19:21.168Z,28.74
2018-07-07T10:20:21.134Z,28.88
2018-07-07T10:22:13.901Z,29.10
2018-07-07T10:23:13.835Z,29.12
2018-07-07T10:25:06.631Z,29.26
2018-07-07T10:26:06.569Z,29.23
2018-07-07T10:27:59.366Z,29.05
2018-07-07T10:28:59.291Z,29.21
2018-07-07T10:30:52.087Z,29.42
2018-07-07T10:31:52.023Z,29.55
2018-07-07T10:33:44.842Z,29.47
2018-07-07T10:34:44.750Z,29.30
2018-07-07T10:36:37.544Z,29.52
2018-07-07T10:37:37.493Z,29.54
2018-07-07T10:39:30.290Z,28.94
2018-07-07T10:40:30.220Z,28.88
2018-07-07T10:42:23.085Z,28.92
2018-07-07T10:43:23.015Z,29.17
2018-07-07T10:45:15.791Z,29.02
2018-07-07T10:46:15.743Z,28.87
2018-07-07T10:48:08.630Z,29.25
2018-07-07T10:49:08.481Z,29.32
2018-07-07T10:51:01.253Z,28.70
2018-07-07T10:52:01.190Z,28.85
2018-07-07T10:53:53.983Z,29.05
2018-07-07T10:54:53.916Z,29.21
2018-07-07T10:56:46.770Z,29.42
2018-07-07T10:57:46.710Z,29.71
2018-07-07T10:59:39.513Z,29.74
2018-07-07T11:00:39.440Z,29.62
2018-07-07T11:02:32.408Z,29.48
2018-07-07T11:03:32.202Z,29.25
2018-07-07T11:05:24.992Z,29.17
2018-07-07T11:06:24.932Z,29.20
2018-07-07T11:08:17.721Z,29.42
2018-07-07T11:09:17.661Z,29.39
2018-07-07T11:11:10.512Z,29.45
2018-07-07T11:12:10.461Z,29.60
2018-07-07T11:14:03.255Z,29.48
2018-07-07T11:15:03.171Z,29.44
2018-07-07T11:16:56.206Z,29.92
2018-07-07T11:17:55.899Z,29.88
2018-07-07T11:19:48.726Z,29.64
2018-07-07T11:20:48.640Z,29.49
2018-07-07T11:22:41.440Z,29.78
2018-07-07T11:23:41.392Z,29.70
2018-07-07T11:25:34.206Z,29.86
2018-07-07T11:26:34.152Z,29.64
2018-07-07T11:28:26.924Z,29.33
2018-07-07T11:29:26.883Z,29.29
2018-07-07T11:31:19.706Z,29.58
2018-07-07T11:32:19.582Z,29.48
2018-07-07T11:34:12.368Z,29.58
2018-07-07T11:35:12.316Z,29.49
2018-07-07T11:37:05.106Z,29.10
2018-07-07T11:38:05.228Z,29.00
2018-07-07T11:39:57.908Z,29.00
2018-07-07T11:40:57.868Z,29.27
2018-07-07T11:42:50.674Z,29.02
2018-07-07T11:43:50.608Z,29.20
2018-07-07T11:45:43.416Z,28.52
2018-07-07T11:46:43.356Z,28.60
2018-07-07T11:48:36.146Z,28.42
2018-07-07T11:49:36.086Z,28.21
2018-07-07T11:51:28.872Z,28.20
2018-07-07T11:52:28.804Z,28.21
2018-07-07T11:54:21.596Z,28.39
2018-07-07T11:55:21.550Z,28.46
2018-07-07T11:57:14.371Z,28.17
2018-07-07T11:58:14.282Z,28.17
2018-07-07T12:00:07.067Z,28.11
2018-07-07T12:01:06.999Z,28.01
2018-07-07T12:02:59.857Z,27.91
2018-07-07T12:03:59.748Z,27.77
2018-07-07T12:05:52.542Z,27.68
2018-07-07T12:06:52.478Z,27.68
2018-07-07T12:08:45.293Z,27.39
2018-07-07T12:09:45.238Z,27.35
2018-07-07T12:11:38.074Z,27.08
2018-07-07T12:12:37.997Z,27.13
2018-07-07T12:14:30.832Z,26.93
2018-07-07T12:15:30.730Z,26.98
2018-07-07T12:17:23.520Z,26.78
2018-07-07T12:18:23.457Z,26.64
2018-07-07T12:20:16.231Z,26.57
2018-07-07T12:21:16.179Z,26.47
2018-07-07T12:23:08.962Z,26.24
2018-07-07T12:24:08.904Z,26.32
2018-07-07T12:26:01.686Z,26.32
2018-07-07T12:27:01.661Z,26.28
2018-07-07T12:28:54.440Z,26.31
2018-07-07T12:29:54.344Z,26.31
2018-07-07T12:31:47.121Z,26.41
2018-07-07T12:32:47.067Z,26.44
2018-07-07T12:34:39.896Z,26.46
2018-07-07T12:35:39.785Z,26.32
2018-07-07T12:37:32.581Z,26.49
2018-07-07T12:38:32.529Z,26.59
2018-07-07T12:40:25.332Z,26.76
2018-07-07T12:41:25.234Z,26.72
2018-07-07T12:43:18.028Z,26.76
2018-07-07T12:44:18.036Z,26.78
2018-07-07T12:46:10.864Z,26.65
2018-07-07T12:47:10.702Z,26.61
2018-07-07T12:49:03.475Z,26.54
2018-07-07T12:50:03.439Z,26.59
2018-07-07T12:51:56.318Z,26.46
2018-07-07T12:52:56.239Z,26.32
2018-07-07T12:54:48.952Z,26.27
2018-07-07T12:55:48.874Z,26.28
2018-07-07T12:57:41.665Z,26.23
2018-07-07T12:58:41.602Z,26.17
2018-07-07T13:00:34.419Z,26.09
2018-07-07T13:01:34.323Z,26.09
2018-07-07T13:03:27.107Z,26.12
2018-07-07T13:04:27.053Z,26.12
2018-07-07T13:06:19.861Z,26.11
2018-07-07T13:07:19.791Z,26.12
2018-07-07T13:09:12.566Z,26.17
2018-07-07T13:10:12.496Z,26.06
2018-07-07T13:12:05.292Z,26.04
2018-07-07T13:13:05.223Z,26.01
2018-07-07T13:14:58.018Z,25.96
2018-07-07T13:15:57.982Z,26.03
2018-07-07T13:17:50.736Z,25.98
2018-07-07T13:18:50.684Z,26.12
2018-07-07T13:20:43.499Z,26.12
2018-07-07T13:21:43.410Z,26.17
2018-07-07T13:23:36.203Z,26.09
2018-07-07T13:24:36.136Z,26.12
2018-07-07T13:26:29.032Z,26.08
2018-07-07T13:27:28.855Z,26.16
2018-07-07T13:29:21.638Z,26.12
2018-07-07T13:30:21.575Z,26.11
2018-07-07T13:32:14.377Z,26.19
2018-07-07T13:33:14.404Z,26.03
2018-07-07T13:35:07.142Z,26.11
2018-07-07T13:36:07.088Z,26.06
2018-07-07T13:37:59.915Z,26.06
2018-07-07T13:38:59.802Z,26.13
2018-07-07T13:40:52.599Z,26.27
2018-07-07T13:41:52.605Z,26.35
2018-07-07T13:43:45.300Z,26.49
2018-07-07T13:44:45.243Z,26.29
2018-07-07T13:46:38.055Z,26.42
2018-07-07T13:47:37.971Z,26.28
2018-07-07T13:49:30.803Z,26.28
2018-07-07T13:50:30.707Z,26.13
2018-07-07T13:52:23.503Z,26.28
2018-07-07T13:53:23.422Z,26.27
2018-07-07T13:55:16.298Z,26.31
2018-07-07T13:56:16.224Z,26.20
2018-07-07T13:58:08.993Z,26.16
2018-07-07T13:59:08.949Z,26.24
2018-07-07T14:01:01.703Z,26.24
2018-07-07T14:02:01.652Z,26.27
2018-07-07T14:03:54.444Z,26.35
2018-07-07T14:04:54.368Z,26.42
2018-07-07T14:06:47.194Z,26.42
2018-07-07T14:07:47.136Z,26.39
2018-07-07T14:09:39.926Z,26.68
2018-07-07T14:10:39.850Z,26.64
2018-07-07T14:12:32.642Z,26.72
2018-07-07T14:13:32.564Z,26.65
2018-07-07T14:15:25.439Z,26.91
2018-07-07T14:16:25.311Z,26.93
2018-07-07T14:18:18.137Z,26.88
2018-07-07T14:19:18.058Z,27.08
2018-07-07T14:21:10.849Z,26.98
2018-07-07T14:22:10.813Z,26.93
2018-07-07T14:24:03.615Z,26.87
2018-07-07T14:25:03.516Z,26.88
2018-07-07T14:26:56.407Z,26.84
2018-07-07T14:27:56.240Z,26.75
2018-07-07T14:29:49.055Z,26.69
2018-07-07T14:30:48.981Z,26.78
2018-07-07T14:32:41.797Z,26.87
2018-07-07T14:33:41.728Z,26.75
2018-07-07T14:35:34.510Z,26.65
2018-07-07T14:36:34.441Z,26.64
2018-07-07T14:38:27.259Z,26.65
2018-07-07T14:39:27.221Z,26.65
2018-07-07T14:41:19.966Z,26.61
2018-07-07T14:42:19.889Z,26.56
2018-07-07T14:44:12.698Z,26.36
2018-07-07T14:45:12.626Z,26.23
2018-07-07T14:47:05.461Z,26.21
2018-07-07T14:48:05.406Z,26.28
2018-07-07T14:49:58.251Z,26.29
2018-07-07T14:50:58.171Z,26.24
2018-07-07T14:52:50.957Z,26.19
2018-07-07T14:53:50.893Z,26.24
2018-07-07T14:55:43.725Z,26.20
2018-07-07T14:56:43.642Z,26.23
2018-07-07T14:58:36.479Z,26.24
2018-07-07T14:59:36.383Z,26.28
2018-07-07T15:01:29.225Z,26.20
2018-07-07T15:02:29.103Z,26.09
2018-07-07T15:04:21.885Z,26.11
2018-07-07T15:05:21.826Z,26.11
2018-07-07T15:07:14.620Z,26.12
2018-07-07T15:08:14.552Z,26.11
2018-07-07T15:10:07.352Z,26.09
2018-07-07T15:11:07.278Z,26.11
2018-07-07T15:13:00.090Z,26.13
2018-07-07T15:14:00.013Z,26.09
2018-07-07T15:15:52.846Z,26.00
2018-07-07T15:16:52.732Z,26.09
2018-07-07T15:18:45.510Z,26.13
2018-07-07T15:19:45.481Z,25.96
2018-07-07T15:21:38.259Z,25.96
2018-07-07T15:22:38.256Z,26.03
2018-07-07T15:24:31.013Z,26.00
2018-07-07T15:25:30.920Z,26.00
2018-07-07T15:27:23.705Z,26.00
2018-07-07T15:28:23.634Z,25.94
2018-07-07T15:30:16.447Z,25.83
2018-07-07T15:31:16.388Z,25.85
2018-07-07T15:33:09.172Z,25.81
2018-07-07T15:34:09.127Z,25.86
2018-07-07T15:36:01.890Z,25.93
2018-07-07T15:37:01.828Z,26.00
2018-07-07T15:38:54.607Z,25.94
2018-07-07T15:39:54.533Z,25.97
2018-07-07T15:41:47.299Z,25.96
2018-07-07T15:42:47.248Z,26.06
2018-07-07T15:44:40.093Z,26.19
2018-07-07T15:45:39.978Z,26.12
2018-07-07T15:47:32.772Z,25.97
2018-07-07T15:48:32.696Z,25.98
2018-07-07T15:50:25.468Z,25.96
2018-07-07T15:51:25.469Z,25.82
2018-07-07T15:53:18.217Z,25.85
2018-07-07T15:54:18.147Z,25.83
2018-07-07T15:56:10.948Z,25.81
2018-07-07T15:57:10.904Z,25.75
2018-07-07T15:59:03.682Z,25.71
2018-07-07T16:00:03.590Z,25.79
2018-07-07T16:01:56.555Z,25.86
2018-07-07T16:02:56.334Z,25.85
2018-07-07T16:04:49.121Z,25.79
2018-07-07T16:05:49.036Z,25.79
2018-07-07T16:07:41.886Z,25.86
2018-07-07T16:08:41.789Z,25.82
2018-07-07T16:10:34.560Z,25.81
2018-07-07T16:11:34.495Z,25.79
2018-07-07T16:13:27.310Z,25.83
2018-07-07T16:14:27.228Z,25.79
2018-07-07T16:16:20.069Z,25.81
2018-07-07T16:17:20.018Z,25.79
2018-07-07T16:19:12.817Z,25.85
2018-07-07T16:20:12.743Z,25.82
2018-07-07T16:22:05.554Z,25.74
2018-07-07T16:23:05.465Z,25.86
2018-07-07T16:24:58.378Z,25.83
2018-07-07T16:25:58.246Z,25.85
2018-07-07T16:27:51.062Z,25.79
2018-07-07T16:28:50.965Z,25.78
2018-07-07T16:30:43.753Z,25.81
2018-07-07T16:31:43.690Z,25.85
2018-07-07T16:33:36.525Z,25.75
2018-07-07T16:34:36.477Z,25.69
2018-07-07T16:36:29.275Z,25.66
2018-07-07T16:37:29.231Z,25.71
2018-07-07T16:39:22.054Z,25.61
2018-07-07T16:40:21.976Z,25.64
2018-07-07T16:42:14.765Z,25.63
2018-07-07T16:43:14.712Z,25.57
2018-07-07T16:45:07.551Z,25.59
2018-07-07T16:46:07.530Z,25.59
2018-07-07T16:48:00.245Z,25.56
2018-07-07T16:49:00.186Z,25.54
2018-07-07T16:50:53.024Z,25.57
2018-07-07T16:51:52.912Z,25.57
2018-07-07T16:53:45.768Z,25.56
2018-07-07T16:54:45.644Z,25.42
2018-07-07T16:56:38.527Z,25.41
2018-07-07T16:57:38.376Z,25.45
2018-07-07T16:59:31.178Z,25.45
2018-07-07T17:00:31.092Z,25.48
2018-07-07T17:02:23.991Z,25.44
2018-07-07T17:03:23.816Z,25.36
2018-07-07T17:05:16.628Z,25.27
2018-07-07T17:06:16.525Z,25.39
2018-07-07T17:08:09.325Z,25.30
2018-07-07T17:09:09.251Z,25.39
2018-07-07T17:11:02.107Z,25.35
2018-07-07T17:12:01.994Z,25.29
2018-07-07T17:13:54.767Z,25.34
2018-07-07T17:14:54.708Z,25.30
2018-07-07T17:16:47.504Z,25.26
2018-07-07T17:17:47.437Z,25.27
2018-07-07T17:19:40.202Z,25.27
2018-07-07T17:20:40.146Z,25.30
2018-07-07T17:22:32.924Z,25.22
2018-07-07T17:23:32.857Z,25.22
2018-07-07T17:25:25.648Z,25.20
2018-07-07T17:26:25.582Z,25.29
2018-07-07T17:28:18.390Z,25.17
2018-07-07T17:29:18.309Z,25.14
2018-07-07T17:31:11.079Z,25.09
2018-07-07T17:32:11.036Z,25.16
2018-07-07T17:34:03.809Z,25.11
2018-07-07T17:35:03.749Z,25.09
2018-07-07T17:36:56.640Z,25.08
2018-07-07T17:37:56.571Z,25.12
2018-07-07T17:39:49.301Z,25.01
2018-07-07T17:40:49.236Z,25.01
2018-07-07T17:42:42.024Z,25.01
2018-07-07T17:43:41.958Z,24.84
2018-07-07T17:45:34.813Z,24.79
2018-07-07T17:46:34.704Z,24.77
2018-07-07T17:48:27.531Z,24.71
2018-07-07T17:49:27.520Z,24.64
2018-07-07T17:51:20.246Z,24.63
2018-07-07T17:52:20.185Z,24.61
2018-07-07T17:54:13.001Z,24.64
2018-07-07T17:55:12.915Z,24.68
2018-07-07T17:57:05.702Z,24.52
2018-07-07T17:58:05.639Z,24.60
2018-07-07T17:59:58.505Z,24.63
2018-07-07T18:00:58.427Z,24.66
2018-07-07T18:02:51.301Z,24.74
2018-07-07T18:03:51.278Z,24.64
2018-07-07T18:05:44.020Z,24.61
2018-07-07T18:06:43.963Z,24.61
2018-07-07T18:08:36.798Z,24.67
2018-07-07T18:09:36.667Z,24.55
2018-07-07T18:11:29.559Z,24.55
2018-07-07T18:12:29.439Z,24.59
2018-07-07T18:14:22.223Z,24.51
2018-07-07T18:15:22.180Z,24.49
2018-07-07T18:17:14.946Z,24.39
2018-07-07T18:18:14.884Z,24.42
2018-07-07T18:20:07.676Z,24.39
2018-07-07T18:21:07.603Z,24.41
2018-07-07T18:23:00.376Z,24.55
2018-07-07T18:24:00.315Z,24.87
2018-07-07T18:25:53.154Z,25.04
2018-07-07T18:26:53.078Z,24.99
2018-07-07T18:28:45.853Z,24.75
2018-07-07T18:29:45.799Z,24.61
2018-07-07T18:31:38.595Z,24.39